createdAt,value
2022-12-17T00:01:15.008Z,57.15
2022-12-17T00:04:05.343Z,51.17
2022-12-17T00:06:53.185Z,57.67
2022-12-17T00:09:50.134Z,52.40
2022-12-17T00:12:38.333Z,52.28
2022-12-17T00:15:28.522Z,52.58
2022-12-17T00:18:19.929Z,51.13
2022-12-17T00:21:11.924Z,56.30
2022-12-17T00:24:00.157Z,54.72
2022-12-17T00:26:48.557Z,54.17
2022-12-17T00:29:36.456Z,51.92
2022-12-17T00:32:24.620Z,56.33
2022-12-17T00:35:12.588Z,55.60
2022-12-17T00:38:04.118Z,57.83
2022-12-17T00:40:51.760Z,59.35
2022-12-17T00:43:39.966Z,58.60
2022-12-17T00:46:27.786Z,54.75
2022-12-17T00:49:15.417Z,54.05
2022-12-17T00:52:03.096Z,51.38
2022-12-17T00:54:53.409Z,55.03
2022-12-17T00:57:43.999Z,54.40
2022-12-17T01:00:31.867Z,54.47
2022-12-17T01:03:22.390Z,58.08
2022-12-17T01:06:10.056Z,59.03
2022-12-17T01:08:57.461Z,56.40
2022-12-17T01:11:47.793Z,59.65
2022-12-17T01:14:35.444Z,59.13
2022-12-17T01:17:23.127Z,52.25
2022-12-17T01:20:10.953Z,55.95
2022-12-17T01:22:58.646Z,59.97
2022-12-17T01:25:46.604Z,49.65
2022-12-17T01:28:40.547Z,63.22
2022-12-17T01:31:34.256Z,55.58
2022-12-17T01:34:22.996Z,55.83
2022-12-17T01:37:10.547Z,56.28
2022-12-17T01:39:58.275Z,62.25
2022-12-17T01:42:53.542Z,58.05
2022-12-17T01:45:49.668Z,57.63
2022-12-17T01:48:42.270Z,55.15
2022-12-17T01:51:30.532Z,56.75
2022-12-17T01:54:21.650Z,57.70
2022-12-17T01:57:09.277Z,55.55
2022-12-17T02:00:02.427Z,57.33
2022-12-17T02:02:54.379Z,61.45
2022-12-17T02:05:49.258Z,58.08
2022-12-17T02:08:47.240Z,57.28
2022-12-17T02:11:48.736Z,56.05
2022-12-17T02:14:43.805Z,60.00
2022-12-17T02:17:37.320Z,63.95
2022-12-17T02:20:39.590Z,61.00
2022-12-17T02:23:37.669Z,59.03
2022-12-17T02:26:29.233Z,63.72
2022-12-17T02:29:22.248Z,68.45
2022-12-17T02:32:10.222Z,57.30
2022-12-17T02:34:59.514Z,60.20
2022-12-17T02:37:47.409Z,59.67
2022-12-17T02:40:37.653Z,58.55
2022-12-17T02:43:26.759Z,62.65
2022-12-17T02:46:17.124Z,61.40
2022-12-17T02:49:04.966Z,65.60
2022-12-17T02:51:53.261Z,70.97
2022-12-17T02:54:45.112Z,64.13
2022-12-17T02:57:32.932Z,60.90
2022-12-17T03:00:22.293Z,58.15
2022-12-17T03:03:12.481Z,60.85
2022-12-17T03:06:00.125Z,61.50
2022-12-17T03:08:47.740Z,59.65
2022-12-17T03:11:35.411Z,63.38
2022-12-17T03:14:22.959Z,62.05
2022-12-17T03:17:10.592Z,59.45
2022-12-17T03:20:01.124Z,61.90
2022-12-17T03:22:48.907Z,59.90
2022-12-17T03:25:36.526Z,66.22
2022-12-17T03:28:26.310Z,59.90
2022-12-17T03:31:14.810Z,59.72
2022-12-17T03:34:02.401Z,59.70
2022-12-17T03:36:52.668Z,57.08
2022-12-17T03:39:40.239Z,60.40
2022-12-17T03:42:27.871Z,59.67
2022-12-17T03:45:15.579Z,62.72
2022-12-17T03:48:03.419Z,60.08
2022-12-17T03:50:51.014Z,61.33
2022-12-17T03:53:41.115Z,56.65
2022-12-17T03:56:30.242Z,59.83
2022-12-17T03:59:23.364Z,66.05
2022-12-17T04:02:11.172Z,60.45
2022-12-17T04:04:59.199Z,60.30
2022-12-17T04:07:46.849Z,61.95
2022-12-17T04:10:37.185Z,60.55
2022-12-17T04:13:24.829Z,62.50
2022-12-17T04:16:12.753Z,60.40
2022-12-17T04:19:00.548Z,62.67
2022-12-17T04:21:48.047Z,65.60
2022-12-17T04:24:35.746Z,65.72
2022-12-17T04:27:26.034Z,64.43
2022-12-17T04:30:13.609Z,59.40
2022-12-17T04:33:01.548Z,60.70
2022-12-17T04:35:49.330Z,60.97
2022-12-17T04:38:37.242Z,58.58
2022-12-17T04:41:25.168Z,70.22
2022-12-17T04:44:15.219Z,63.20
2022-12-17T04:47:02.978Z,56.47
2022-12-17T04:49:50.439Z,62.10
2022-12-17T04:52:38.153Z,55.60
2022-12-17T04:55:25.744Z,62.38
2022-12-17T04:58:17.641Z,62.67
2022-12-17T05:01:09.880Z,58.03
2022-12-17T05:03:57.811Z,58.80
2022-12-17T05:06:45.708Z,59.85
2022-12-17T05:09:33.412Z,64.22
2022-12-17T05:12:21.348Z,60.42
2022-12-17T05:15:08.987Z,64.32
2022-12-17T05:17:59.772Z,62.42
2022-12-17T05:20:47.396Z,60.67
2022-12-17T05:23:35.491Z,65.22
2022-12-17T05:26:33.131Z,60.28
2022-12-17T05:29:20.732Z,65.50
2022-12-17T05:32:08.636Z,60.80
2022-12-17T05:34:59.435Z,62.42
2022-12-17T05:37:47.331Z,59.53
2022-12-17T05:40:35.054Z,60.33
2022-12-17T05:43:26.211Z,65.25
2022-12-17T05:46:15.017Z,61.97
2022-12-17T05:49:02.916Z,57.28
2022-12-17T05:51:53.508Z,63.15
2022-12-17T05:54:41.255Z,63.17
2022-12-17T05:57:28.926Z,57.38
2022-12-17T06:00:16.510Z,61.72
2022-12-17T06:03:04.444Z,63.70
2022-12-17T06:05:52.171Z,58.83
2022-12-17T06:08:42.273Z,61.72
2022-12-17T06:11:30.016Z,63.05
2022-12-17T06:14:17.669Z,59.35
2022-12-17T06:17:05.596Z,58.28
2022-12-17T06:19:53.488Z,56.83
2022-12-17T06:22:41.085Z,59.88
2022-12-17T06:25:31.450Z,59.30
2022-12-17T06:28:19.415Z,58.50
2022-12-17T06:31:07.444Z,61.25
2022-12-17T06:33:55.918Z,64.47
2022-12-17T06:36:43.642Z,60.70
2022-12-17T06:39:31.252Z,59.40
2022-12-17T06:42:21.615Z,61.45
2022-12-17T06:45:09.385Z,65.28
2022-12-17T06:48:09.482Z,69.70
2022-12-17T06:50:58.025Z,66.75
2022-12-17T06:53:45.667Z,81.40
2022-12-17T06:56:33.307Z,67.97
2022-12-17T06:59:23.606Z,75.78
2022-12-17T07:02:11.668Z,74.38
2022-12-17T07:04:59.353Z,68.35
2022-12-17T07:07:47.209Z,71.32
2022-12-17T07:10:35.144Z,59.42
2022-12-17T07:13:24.125Z,67.85
2022-12-17T07:16:27.484Z,68.90
2022-12-17T07:19:15.148Z,64.63
2022-12-17T07:22:02.683Z,71.57
2022-12-17T07:24:50.293Z,69.35
2022-12-17T07:27:38.969Z,71.13
2022-12-17T07:30:27.821Z,66.63
2022-12-17T07:33:19.894Z,71.53
2022-12-17T07:36:08.652Z,68.10
2022-12-17T07:38:56.270Z,73.82
2022-12-17T07:41:43.825Z,76.43
2022-12-17T07:44:31.628Z,76.80
2022-12-17T07:47:19.727Z,73.93
2022-12-17T07:50:12.392Z,84.80
2022-12-17T07:53:00.363Z,70.43
2022-12-17T07:55:48.333Z,89.22
2022-12-17T07:58:36.408Z,81.35
2022-12-17T08:01:36.137Z,79.10
2022-12-17T08:04:23.937Z,85.38
2022-12-17T08:07:14.518Z,85.95
2022-12-17T08:10:02.481Z,86.57
2022-12-17T08:12:50.351Z,85.28
2022-12-17T08:15:38.051Z,88.32
2022-12-17T08:18:26.894Z,80.55
2022-12-17T08:21:15.107Z,81.63
2022-12-17T08:24:05.558Z,84.07
2022-12-17T08:26:53.232Z,94.00
2022-12-17T08:29:41.127Z,90.05
2022-12-17T08:32:28.906Z,87.40
2022-12-17T08:35:16.713Z,92.75
2022-12-17T08:38:16.051Z,99.50
2022-12-17T08:41:06.753Z,106.07
2022-12-17T08:43:54.713Z,94.97
2022-12-17T08:46:42.306Z,93.53
2022-12-17T08:49:30.080Z,100.00
2022-12-17T08:52:17.743Z,87.82
2022-12-17T08:55:14.351Z,87.93
2022-12-17T08:58:12.058Z,91.15
2022-12-17T09:01:01.664Z,90.97
2022-12-17T09:03:49.229Z,98.95
2022-12-17T09:06:39.285Z,89.07
2022-12-17T09:09:30.364Z,112.03
2022-12-17T09:12:17.944Z,93.05
2022-12-17T09:15:08.757Z,95.78
2022-12-17T09:17:59.390Z,87.20
2022-12-17T09:20:47.293Z,76.57
2022-12-17T09:23:35.499Z,92.60
2022-12-17T09:26:23.306Z,91.78
2022-12-17T09:29:11.222Z,88.78
2022-12-17T09:32:01.412Z,98.28
2022-12-17T09:34:49.003Z,96.13
2022-12-17T09:37:36.448Z,102.43
2022-12-17T09:40:31.303Z,100.15
2022-12-17T09:43:27.083Z,88.60
2022-12-17T09:46:24.279Z,94.45
2022-12-17T09:49:18.633Z,90.53
2022-12-17T09:52:12.093Z,95.95
2022-12-17T09:55:04.044Z,95.88
2022-12-17T09:57:53.102Z,91.18
2022-12-17T10:00:43.339Z,94.72
2022-12-17T10:03:34.048Z,102.00
2022-12-17T10:06:26.946Z,70.85
2022-12-17T10:09:17.073Z,66.78
2022-12-17T10:12:04.882Z,67.75
2022-12-17T10:14:52.757Z,69.53
2022-12-17T10:17:40.496Z,69.70
2022-12-17T10:20:36.352Z,77.70
2022-12-17T10:23:37.788Z,63.40
2022-12-17T10:26:25.759Z,65.43
2022-12-17T10:29:19.316Z,63.97
2022-12-17T10:32:06.931Z,67.70
2022-12-17T10:34:54.618Z,68.20
2022-12-17T10:37:47.360Z,59.80
2022-12-17T10:40:41.147Z,58.38
2022-12-17T10:43:40.267Z,57.33
2022-12-17T10:46:30.516Z,58.17
2022-12-17T10:49:27.128Z,52.78
2022-12-17T10:52:16.393Z,54.00
2022-12-17T10:55:19.503Z,56.10
2022-12-17T10:58:10.437Z,52.10
2022-12-17T11:00:58.034Z,57.78
2022-12-17T11:03:53.841Z,61.85
2022-12-17T11:06:44.833Z,56.95
2022-12-17T11:09:47.191Z,64.65
2022-12-17T11:12:39.546Z,60.45
2022-12-17T11:15:37.662Z,67.75
2022-12-17T11:18:32.326Z,60.55
2022-12-17T11:21:24.537Z,65.78
2022-12-17T11:24:20.638Z,61.03
2022-12-17T11:27:12.020Z,63.58
2022-12-17T11:30:00.221Z,73.15
2022-12-17T11:33:16.942Z,72.05
2022-12-17T11:36:14.582Z,74.07
2022-12-17T11:39:10.323Z,70.35
2022-12-17T11:42:11.229Z,72.57
2022-12-17T11:45:09.098Z,74.65
2022-12-17T11:48:03.041Z,68.43
2022-12-17T11:50:59.870Z,66.20
2022-12-17T11:54:02.642Z,67.75
2022-12-17T11:56:56.657Z,64.13
2022-12-17T11:59:52.910Z,58.72
2022-12-17T12:02:58.383Z,104.93
2022-12-17T12:05:57.410Z,63.92
2022-12-17T12:08:49.008Z,72.25
2022-12-17T12:11:45.863Z,65.35
2022-12-17T12:14:44.449Z,66.93
2022-12-17T12:17:46.093Z,63.80
2022-12-17T12:20:46.418Z,64.15
2022-12-17T12:23:51.409Z,53.55
2022-12-17T12:26:45.403Z,63.72
2022-12-17T12:29:43.088Z,47.13
2022-12-17T12:32:41.883Z,58.28
2022-12-17T12:35:34.917Z,49.13
2022-12-17T12:38:31.189Z,48.78
2022-12-17T12:41:34.957Z,49.95
2022-12-17T12:44:32.850Z,52.17
2022-12-17T12:47:28.381Z,47.75
2022-12-17T12:50:21.197Z,52.42
2022-12-17T12:53:09.185Z,53.97
2022-12-17T12:55:58.221Z,53.53
2022-12-17T12:59:04.523Z,51.88
2022-12-17T13:01:53.718Z,50.55
2022-12-17T13:04:49.238Z,50.88
2022-12-17T13:07:26.848Z,50.88
2022-12-17T13:10:03.197Z,50.15
2022-12-17T13:12:47.583Z,51.83
2022-12-17T13:15:33.775Z,54.10
2022-12-17T13:18:22.086Z,51.30
2022-12-17T13:21:03.557Z,50.30
2022-12-17T13:23:40.444Z,48.75
2022-12-17T13:26:23.621Z,53.15
2022-12-17T13:29:14.480Z,48.08
2022-12-17T13:32:05.734Z,53.88
2022-12-17T13:34:58.176Z,52.22
2022-12-17T13:37:43.389Z,50.15
2022-12-17T13:40:37.835Z,47.15
2022-12-17T13:43:20.330Z,48.20
2022-12-17T13:45:57.772Z,45.78
2022-12-17T13:48:36.037Z,45.72
2022-12-17T13:51:23.149Z,46.50
2022-12-17T13:53:59.910Z,42.72
2022-12-17T13:56:37.287Z,44.70
2022-12-17T13:59:22.106Z,44.10
2022-12-17T14:01:58.040Z,42.38
2022-12-17T14:04:36.405Z,46.20
2022-12-17T14:07:11.787Z,41.22
2022-12-17T14:09:47.496Z,46.53
2022-12-17T14:12:23.696Z,45.00
2022-12-17T14:15:02.455Z,40.92
2022-12-17T14:17:43.388Z,36.97
2022-12-17T14:20:23.680Z,35.90
2022-12-17T14:23:02.436Z,41.92
2022-12-17T14:25:40.726Z,36.55
2022-12-17T14:28:26.078Z,34.33
2022-12-17T14:34:08.020Z,38.28
2022-12-17T14:36:46.991Z,37.75
2022-12-17T14:39:26.740Z,34.15
2022-12-17T14:42:28.349Z,38.75
2022-12-17T14:45:08.196Z,37.03
2022-12-17T14:47:43.695Z,40.17
2022-12-17T14:50:31.068Z,38.90
2022-12-17T14:53:27.954Z,37.85
2022-12-17T14:56:04.037Z,32.97
2022-12-17T14:58:48.524Z,30.35
2022-12-17T15:01:23.753Z,31.65
2022-12-17T15:03:59.680Z,33.88
2022-12-17T15:06:35.339Z,31.77
2022-12-17T15:09:15.039Z,36.33
2022-12-17T15:11:50.425Z,35.15
2022-12-17T15:14:25.858Z,35.72
2022-12-17T15:17:01.814Z,34.67
2022-12-17T15:19:37.075Z,37.88
2022-12-17T15:22:18.197Z,33.15
2022-12-17T15:24:56.113Z,34.45
2022-12-17T15:27:31.674Z,34.22
2022-12-17T15:30:07.851Z,43.13
2022-12-17T15:32:43.691Z,37.28
2022-12-17T15:35:19.008Z,41.92
2022-12-17T15:37:54.922Z,43.72
2022-12-17T15:40:33.272Z,37.58
2022-12-17T15:43:13.557Z,40.45
2022-12-17T15:45:51.184Z,41.17
2022-12-17T15:48:26.693Z,42.65
2022-12-17T15:51:02.093Z,41.88
2022-12-17T15:53:37.869Z,42.28
2022-12-17T15:56:23.413Z,48.90
2022-12-17T15:59:00.392Z,43.17
2022-12-17T16:01:36.585Z,47.13
2022-12-17T16:04:17.836Z,49.05
2022-12-17T16:06:58.255Z,41.22
2022-12-17T16:09:33.655Z,46.00
2022-12-17T16:12:11.576Z,43.78
2022-12-17T16:14:47.195Z,46.00
2022-12-17T16:17:22.478Z,43.40
2022-12-17T16:19:58.211Z,49.22
2022-12-17T16:22:33.297Z,58.40
2022-12-17T16:25:09.489Z,45.13
2022-12-17T16:27:47.473Z,44.30
2022-12-17T16:30:22.900Z,45.53
2022-12-17T16:33:00.735Z,41.70
2022-12-17T16:35:35.862Z,43.50
2022-12-17T16:38:11.614Z,45.05
2022-12-17T16:40:50.565Z,46.80
2022-12-17T16:43:29.281Z,47.35
2022-12-17T16:46:10.588Z,40.35
2022-12-17T16:48:47.601Z,52.78
2022-12-17T16:51:28.866Z,50.45
2022-12-17T16:54:08.413Z,41.63
2022-12-17T16:56:45.047Z,43.80
2022-12-17T16:59:23.582Z,52.20
2022-12-17T17:02:00.468Z,54.40
2022-12-17T17:04:35.972Z,43.30
2022-12-17T17:07:12.120Z,46.17
2022-12-17T17:09:48.396Z,53.67
2022-12-17T17:12:23.597Z,44.75
2022-12-17T17:15:01.915Z,53.72
2022-12-17T17:17:55.542Z,56.13
2022-12-17T17:20:32.824Z,52.63
2022-12-17T17:23:07.873Z,52.92
2022-12-17T17:25:57.990Z,56.38
2022-12-17T17:28:34.008Z,56.92
2022-12-17T17:31:15.233Z,59.65
2022-12-17T17:33:52.525Z,53.95
2022-12-17T17:36:29.556Z,51.78
2022-12-17T17:39:05.034Z,50.72
2022-12-17T17:41:40.491Z,50.72
2022-12-17T17:44:16.713Z,54.35
2022-12-17T17:46:54.360Z,51.00
2022-12-17T17:49:29.723Z,52.75
2022-12-17T17:52:09.818Z,46.83
2022-12-17T17:54:46.037Z,50.17
2022-12-17T17:57:21.994Z,50.35
2022-12-17T17:59:57.421Z,49.47
2022-12-17T18:02:35.598Z,50.65
2022-12-17T18:05:11.928Z,51.88
2022-12-17T18:07:48.032Z,52.92
2022-12-17T18:10:24.392Z,51.17
2022-12-17T18:13:19.127Z,46.45
2022-12-17T18:15:54.699Z,45.47
2022-12-17T18:18:33.826Z,46.53
2022-12-17T18:21:14.964Z,46.33
2022-12-17T18:23:50.656Z,50.85
2022-12-17T18:26:27.980Z,54.13
2022-12-17T18:29:04.775Z,54.13
2022-12-17T18:31:40.812Z,50.10
2022-12-17T18:34:20.861Z,56.50
2022-12-17T18:36:56.729Z,49.90
2022-12-17T18:39:33.227Z,47.58
2022-12-17T18:42:21.900Z,51.63
2022-12-17T18:44:57.404Z,46.05
2022-12-17T18:47:33.153Z,45.28
2022-12-17T18:50:13.945Z,47.85
2022-12-17T18:52:50.383Z,49.42
2022-12-17T18:55:26.120Z,49.75
2022-12-17T18:58:02.031Z,50.35
2022-12-17T19:00:39.506Z,56.20
2022-12-17T19:03:15.159Z,48.55
2022-12-17T19:05:55.669Z,54.47
2022-12-17T19:08:31.412Z,49.75
2022-12-17T19:11:08.772Z,55.42
2022-12-17T19:13:44.765Z,53.00
2022-12-17T19:16:23.209Z,55.25
2022-12-17T19:19:02.290Z,55.50
2022-12-17T19:21:40.832Z,54.53
2022-12-17T19:24:18.684Z,60.67
2022-12-17T19:26:57.931Z,60.20
2022-12-17T19:29:34.003Z,58.30
2022-12-17T19:32:10.720Z,53.88
2022-12-17T19:34:49.740Z,47.92
2022-12-17T19:37:28.082Z,54.80
2022-12-17T19:40:03.586Z,56.15
2022-12-17T19:42:40.322Z,55.35
2022-12-17T19:45:15.695Z,56.30
2022-12-17T19:47:51.657Z,56.72
2022-12-17T19:50:27.560Z,59.72
2022-12-17T19:53:06.769Z,58.35
2022-12-17T19:55:42.457Z,61.17
2022-12-17T19:58:17.784Z,57.08
2022-12-17T20:00:53.829Z,56.22
2022-12-17T20:03:30.141Z,54.80
2022-12-17T20:06:09.501Z,59.35
2022-12-17T20:08:47.549Z,55.22
2022-12-17T20:11:45.334Z,59.72
2022-12-17T20:14:22.653Z,53.13
2022-12-17T20:16:59.514Z,60.53
2022-12-17T20:19:37.542Z,52.65
